Time;durP1;ratioP1;P1;durP2;ratioP2;P2;SDS_P1;SDS_P2;PMS_P1;PMS_P2;Temp;Humidity;BMP_temperature;BMP_pressure;BME280_temperature;BME280_humidity;BME280_pressure;Samples;Min_cycle;Max_cycle;Signal;HPM_P1;HPM_P2
2021/11/12 00:03:38;;;;;;;90.60;76.80;;;;;;;3.67;78.91;101202.95;107374;1297;22039;-75
2021/11/12 00:11:52;;;;;;;91.80;78.40;;;;;;;3.76;79.05;101201.27;107574;1294;23100;-76
2021/11/12 00:14:25;;;;;;;91.60;77.70;;;;;;;3.80;79.09;101197.23;107530;1294;23876;-76
2021/11/12 00:16:55;;;;;;;87.60;75.50;;;;;;;3.82;79.07;101196.33;107713;1291;22870;-76
2021/11/12 00:19:25;;;;;;;87.80;73.30;;;;;;;3.86;79.19;101197.66;108190;1286;23718;-75
2021/11/12 00:21:56;;;;;;;85.90;73.50;;;;;;;3.91;79.20;101195.97;108330;1286;23610;-76
2021/11/12 00:24:25;;;;;;;86.20;73.40;;;;;;;3.95;79.14;101194.27;108267;1286;22053;-76
2021/11/12 00:26:57;;;;;;;84.00;71.80;;;;;;;3.97;78.96;101192.39;107645;1291;22004;-75
2021/11/12 00:29:27;;;;;;;84.50;71.00;;;;;;;3.98;79.06;101192.48;108037;1291;22002;-76
2021/11/12 00:40:22;;;;;;;85.90;70.80;;;;;;;4.06;79.05;101193.91;108208;1287;23864;-75
2021/11/12 00:45:25;;;;;;;77.10;67.90;;;;;;;4.08;78.94;101191.33;108373;1279;22983;-76
2021/11/12 00:48:14;;;;;;;83.40;71.20;;;;;;;4.04;78.70;101187.89;108700;1277;21990;-76
2021/11/12 00:55:45;;;;;;;93.70;74.80;;;;;;;4.06;78.96;101191.83;108354;1283;23058;-75
2021/11/12 00:58:16;;;;;;;93.60;73.20;;;;;;;4.06;78.80;101191.96;108383;1283;22000;-75
2021/11/12 01:00:45;;;;;;;89.90;74.20;;;;;;;4.04;78.80;101191.22;108438;1283;21969;-76
2021/11/12 01:03:15;;;;;;;89.70;75.20;;;;;;;4.06;79.05;101190.21;108046;1288;21995;-75
2021/11/12 01:05:44;;;;;;;93.40;75.50;;;;;;;4.10;79.04;101190.13;108075;1288;21982;-75
2021/11/12 01:08:13;;;;;;;90.40;72.20;;;;;;;4.12;79.04;101192.93;108097;1283;24388;-75
2021/11/12 01:10:42;;;;;;;81.90;69.50;;;;;;;4.14;79.02;101195.77;108428;1282;22028;-75
2021/11/12 01:13:12;;;;;;;90.30;72.70;;;;;;;4.15;78.95;101197.98;108453;1283;21987;-75
2021/11/12 01:15:41;;;;;;;87.90;69.10;;;;;;;4.16;78.93;101201.37;108378;1283;21995;-76
2021/11/12 01:18:10;;;;;;;92.00;71.00;;;;;;;4.15;78.79;101201.59;107900;1290;22488;-76
2021/11/12 01:20:39;;;;;;;89.80;70.50;;;;;;;4.14;78.76;101198.75;107387;1291;22094;-76
2021/11/12 01:23:09;;;;;;;84.70;70.20;;;;;;;4.15;78.81;101197.96;107431;1297;23161;-76
2021/11/12 01:25:39;;;;;;;94.20;72.80;;;;;;;4.16;78.76;101198.04;107239;1297;22007;-76
2021/11/12 01:28:09;;;;;;;86.90;71.60;;;;;;;4.17;78.69;101194.00;107567;1296;23042;-76
2021/11/12 01:30:38;;;;;;;89.50;70.00;;;;;;;4.17;78.67;101191.52;107363;1297;22016;-76
2021/11/12 01:33:08;;;;;;;90.50;69.40;;;;;;;4.18;78.57;101192.89;107538;1297;23189;-76
2021/11/12 01:35:37;;;;;;;90.60;70.90;;;;;;;4.17;78.57;101190.33;107159;1295;22055;-76
2021/11/12 01:38:07;;;;;;;88.80;68.60;;;;;;;4.17;78.51;101195.91;107638;1289;23809;-75
2021/11/12 01:40:36;;;;;;;87.40;67.20;;;;;;;4.16;78.50;101191.98;108327;1283;25009;-75
2021/11/12 01:43:17;;;;;;;83.40;65.80;;;;;;;4.14;78.43;101190.67;108046;1291;21996;-76
2021/11/12 01:46:44;;;;;;;86.90;66.80;;;;;;;4.13;78.39;101190.45;107479;1297;22887;-76
2021/11/12 01:51:52;;;;;;;91.30;69.10;;;;;;;4.10;78.66;101191.54;107564;1297;22361;-75
2021/11/12 01:59:54;;;;;;;84.70;67.10;;;;;;;4.05;78.73;101188.16;108056;1291;22728;-75
2021/11/12 02:02:25;;;;;;;87.10;67.30;;;;;;;4.05;78.64;101181.92;108228;1284;22110;-75
2021/11/12 02:04:56;;;;;;;83.80;65.40;;;;;;;4.04;78.69;101179.55;108732;1277;23620;-76
2021/11/12 02:07:26;;;;;;;86.50;67.00;;;;;;;4.05;78.86;101177.35;108496;1283;23582;-77
2021/11/12 02:09:55;;;;;;;88.90;67.60;;;;;;;4.08;78.94;101179.25;108358;1283;22001;-76
2021/11/12 02:12:29;;;;;;;84.60;65.60;;;;;;;4.10;78.99;101180.51;108532;1283;21992;-76
2021/11/12 02:14:59;;;;;;;83.70;64.00;;;;;;;4.10;78.88;101182.24;108447;1283;22559;-76
2021/11/12 02:17:31;;;;;;;87.50;65.90;;;;;;;4.12;78.95;101178.66;108471;1283;23060;-76
2021/11/12 02:22:37;;;;;;;91.90;69.10;;;;;;;4.05;79.10;101170.91;108410;1283;23726;-76
2021/11/12 02:25:13;;;;;;;80.10;64.50;;;;;;;4.07;79.30;101174.33;108483;1277;21983;-76
2021/11/12 02:27:52;;;;;;;87.90;68.60;;;;;;;4.10;79.33;101173.54;108832;1277;22818;-76
2021/11/12 02:30:24;;;;;;;89.00;68.00;;;;;;;4.14;79.27;101171.16;108621;1277;23738;-75
2021/11/12 02:33:13;;;;;;;76.10;62.90;;;;;;;4.18;79.29;101173.01;108651;1277;22036;-76
2021/11/12 02:36:07;;;;;;;84.00;65.60;;;;;;;4.20;79.07;101174.95;108582;1277;23075;-76
2021/11/12 02:38:42;;;;;;;82.30;63.60;;;;;;;4.22;79.20;101177.91;108783;1277;21987;-75
2021/11/12 02:41:12;;;;;;;79.90;62.70;;;;;;;4.24;79.26;101177.77;108802;1277;21980;-75
2021/11/12 02:43:45;;;;;;;85.60;66.60;;;;;;;4.28;79.24;101179.33;108832;1277;21995;-75
2021/11/12 02:46:19;;;;;;;77.40;63.90;;;;;;;4.30;79.27;101182.27;108635;1277;21977;-75
2021/11/12 02:48:50;;;;;;;79.90;64.00;;;;;;;4.32;79.25;101173.92;108770;1277;21984;-75
2021/11/12 02:51:26;;;;;;;80.30;64.60;;;;;;;4.34;79.22;101176.09;108808;1277;21996;-75
2021/11/12 02:54:03;;;;;;;80.50;62.90;;;;;;;4.36;79.25;101174.75;108677;1277;23040;-75
2021/11/12 02:56:33;;;;;;;79.20;66.30;;;;;;;4.38;79.27;101172.83;108811;1278;21980;-76
2021/11/12 02:59:13;;;;;;;84.00;66.10;;;;;;;4.40;79.33;101178.78;108649;1277;22004;-76
2021/11/12 03:01:46;;;;;;;82.70;65.20;;;;;;;4.43;79.35;101179.30;108904;1278;23669;-75
2021/11/12 03:04:19;;;;;;;84.10;66.60;;;;;;;4.44;79.27;101177.96;108656;1277;22055;-75
2021/11/12 03:06:49;;;;;;;79.10;64.10;;;;;;;4.44;79.21;101179.70;108882;1277;23053;-75
2021/11/12 03:09:30;;;;;;;85.10;66.70;;;;;;;4.44;79.20;101182.14;108591;1280;21985;-75
2021/11/12 03:12:03;;;;;;;81.60;66.10;;;;;;;4.46;79.24;101181.34;108652;1278;22065;-75
2021/11/12 03:14:35;;;;;;;80.90;65.20;;;;;;;4.44;79.19;101179.52;108560;1277;23126;-75
2021/11/12 03:17:05;;;;;;;80.30;65.20;;;;;;;4.45;79.34;101175.50;108187;1285;23797;-74
2021/11/12 03:19:35;;;;;;;84.00;68.50;;;;;;;4.45;79.29;101171.61;108327;1285;23624;-74
2021/11/12 03:22:08;;;;;;;82.30;67.00;;;;;;;4.47;79.32;101168.81;107720;1291;23749;-74
2021/11/12 03:24:45;;;;;;;81.20;66.60;;;;;;;4.49;79.39;101166.45;107884;1291;23030;-75
2021/11/12 03:27:25;;;;;;;84.30;65.10;;;;;;;4.51;79.40;101173.14;107999;1291;22044;-75
2021/11/12 03:47:11;;;;;;;76.60;61.40;;;;;;;4.44;79.51;101181.45;108668;1277;21964;-75
2021/11/12 03:56:30;;;;;;;77.30;62.70;;;;;;;4.50;79.80;101184.91;108829;1276;22356;-76
2021/11/12 04:00:54;;;;;;;81.30;64.30;;;;;;;4.56;79.93;101190.03;108424;1283;21979;-76
2021/11/12 04:20:06;;;;;;;79.80;60.60;;;;;;;4.67;79.90;101187.54;108778;1277;23576;-76
2021/11/12 05:47:09;;;;;;;98.00;72.60;;;;;;;4.90;81.31;101222.73;107778;1291;22012;-76
2021/11/12 05:55:21;;;;;;;87.30;64.00;;;;;;;5.02;81.31;101229.70;107907;1288;214237;-76
2021/11/12 05:57:51;;;;;;;86.90;66.00;;;;;;;5.06;81.30;101232.34;108334;1286;21986;-76
2021/11/12 06:00:21;;;;;;;85.50;64.50;;;;;;;5.11;81.28;101230.59;107730;1291;21999;-76
2021/11/12 06:02:52;;;;;;;88.40;65.20;;;;;;;5.16;81.28;101227.46;107689;1291;22657;-76
2021/11/12 06:05:22;;;;;;;98.80;70.50;;;;;;;5.15;80.87;101229.77;107982;1291;22758;-76
2021/11/12 06:07:52;;;;;;;101.90;70.60;;;;;;;5.16;80.91;101231.61;107676;1292;22440;-75
2021/11/12 06:10:21;;;;;;;92.30;67.90;;;;;;;5.19;80.83;101237.73;107717;1290;24429;-75
2021/11/12 06:12:51;;;;;;;86.70;65.00;;;;;;;5.17;80.55;101236.83;108051;1291;22031;-75
2021/11/12 06:15:20;;;;;;;88.80;65.70;;;;;;;5.17;80.73;101237.69;108081;1291;23078;-75
2021/11/12 06:17:49;;;;;;;81.80;63.60;;;;;;;5.20;80.79;101236.10;107734;1286;22035;-75
2021/11/12 06:20:20;;;;;;;84.00;63.60;;;;;;;5.23;80.84;101235.20;108282;1286;22806;-75
2021/11/12 06:22:49;;;;;;;86.90;65.60;;;;;;;5.26;80.80;101236.15;108249;1281;23691;-75
2021/11/12 06:25:18;;;;;;;95.40;66.30;;;;;;;5.31;81.00;101235.09;108506;1280;23096;-76
2021/11/12 06:27:48;;;;;;;90.90;64.00;;;;;;;5.35;80.90;101236.91;108740;1280;23579;-75
2021/11/12 06:30:17;;;;;;;90.70;64.50;;;;;;;5.36;80.69;101243.30;108538;1279;24316;-75
2021/11/12 06:32:46;;;;;;;85.90;65.30;;;;;;;5.37;80.69;101243.88;108823;1278;22971;-74
2021/11/12 06:35:16;;;;;;;93.70;68.50;;;;;;;5.39;80.60;101244.44;108736;1279;22205;-75
2021/11/12 06:37:45;;;;;;;83.30;65.40;;;;;;;5.41;80.48;101242.75;108885;1278;21999;-74
2021/11/12 06:40:19;;;;;;;86.30;65.70;;;;;;;5.40;80.35;101241.23;108505;1279;22001;-75
2021/11/12 06:51:09;;;;;;;93.00;69.00;;;;;;;5.39;80.46;101243.27;108720;1278;24498;-74
2021/11/12 06:53:39;;;;;;;90.90;67.30;;;;;;;5.42;80.56;101241.23;108547;1278;21997;-75
2021/11/12 06:56:08;;;;;;;92.60;68.40;;;;;;;5.44;80.41;101239.19;108838;1278;21989;-75
2021/11/12 06:58:40;;;;;;;94.30;70.20;;;;;;;5.46;80.40;101240.81;108352;1285;22191;-75
2021/11/12 07:01:09;;;;;;;99.50;70.70;;;;;;;5.47;80.33;101240.38;108362;1285;23586;-75
2021/11/12 07:03:40;;;;;;;95.60;68.70;;;;;;;5.49;80.38;101244.63;107956;1291;22029;-75
2021/11/12 07:06:09;;;;;;;95.40;70.40;;;;;;;5.53;80.37;101247.13;107933;1291;23181;-75
2021/11/12 07:08:42;;;;;;;89.30;69.70;;;;;;;5.56;80.42;101246.68;107792;1292;23608;-75
2021/11/12 07:11:12;;;;;;;93.50;69.50;;;;;;;5.58;80.24;101247.61;107957;1291;21971;-76
2021/11/12 07:13:51;;;;;;;100.20;71.30;;;;;;;5.60;80.27;101253.38;108070;1291;21974;-76
2021/11/12 07:16:20;;;;;;;96.40;67.40;;;;;;;5.62;80.13;101250.80;108149;1288;22016;-78
2021/11/12 07:18:49;;;;;;;88.00;65.60;;;;;;;5.57;79.64;101246.45;108405;1286;23713;-77
2021/11/12 07:21:19;;;;;;;98.00;67.00;;;;;;;5.51;79.57;101248.11;108368;1281;22952;-77
2021/11/12 07:24:02;;;;;;;;;;;;;;;5.47;79.54;101246.69;108303;1285;23068;-77
2021/11/12 07:26:32;;;;;;;103.20;66.50;;;;;;;5.32;79.54;101248.46;108390;1288;22011;-76
2021/11/12 07:29:03;;;;;;;97.30;66.80;;;;;;;5.31;79.90;101246.66;107944;1291;23037;-76
2021/11/12 07:31:42;;;;;;;97.60;67.80;;;;;;;5.35;80.28;101247.91;108011;1291;22138;-77
2021/11/12 07:34:15;;;;;;;107.20;75.20;;;;;;;5.41;80.54;101245.70;107679;1294;22000;-76
2021/11/12 07:36:53;;;;;;;114.20;76.90;;;;;;;5.49;80.66;101247.73;107724;1295;22061;-76
2021/11/12 07:39:36;;;;;;;107.70;77.60;;;;;;;5.55;80.67;101249.90;107686;1294;22586;-76
2021/11/12 07:45:12;;;;;;;110.60;75.30;;;;;;;5.68;80.63;101246.73;108194;1291;22017;-76
2021/11/12 07:47:44;;;;;;;104.40;72.40;;;;;;;5.73;80.57;101250.16;108164;1288;23646;-76
2021/11/12 07:50:21;;;;;;;100.40;69.10;;;;;;;5.77;80.36;101250.37;108017;1292;22055;-76
2021/11/12 07:52:50;;;;;;;105.80;74.80;;;;;;;5.79;80.33;101251.14;108243;1283;21999;-76
2021/11/12 07:55:19;;;;;;;108.00;77.60;;;;;;;5.83;80.49;101252.53;108464;1283;22720;-76
2021/11/12 07:57:53;;;;;;;111.50;78.20;;;;;;;5.89;80.57;101250.31;108499;1283;22012;-76
2021/11/12 08:00:23;;;;;;;110.20;75.00;;;;;;;5.95;80.46;101248.90;108437;1285;22291;-76
2021/11/12 08:03:04;;;;;;;102.60;77.50;;;;;;;5.98;80.44;101251.13;108459;1284;21992;-76
2021/11/12 08:05:38;;;;;;;109.00;76.00;;;;;;;6.03;80.44;101252.52;108029;1289;22114;-77
2021/11/12 08:08:16;;;;;;;107.40;76.50;;;;;;;6.09;80.59;101257.13;108236;1285;23624;-76
2021/11/12 08:10:56;;;;;;;106.20;76.40;;;;;;;6.15;80.57;101254.55;108287;1288;23676;-76
2021/11/12 08:14:31;;;;;;;103.00;71.70;;;;;;;6.20;80.26;101254.39;108130;1289;22079;-75
2021/11/12 08:19:25;;;;;;;225.20;139.30;;;;;;;6.11;80.00;101249.02;108146;1290;23620;-76
2021/11/12 08:22:06;;;;;;;141.70;97.10;;;;;;;6.16;80.05;101251.54;108171;1289;22045;-76
2021/11/12 08:43:35;;;;;;;133.50;89.70;;;;;;;6.44;79.81;101246.56;108368;1284;21981;-76
2021/11/12 08:46:14;;;;;;;127.50;87.40;;;;;;;6.47;79.82;101242.48;108066;1291;23704;-75
2021/11/12 08:48:55;;;;;;;121.80;86.60;;;;;;;6.50;79.76;101244.36;107924;1291;23077;-75
2021/11/12 08:51:32;;;;;;;127.40;94.20;;;;;;;6.51;79.51;101246.20;107810;1291;22493;-75
2021/11/12 08:54:04;;;;;;;124.00;92.80;;;;;;;6.49;79.37;101248.97;108056;1291;23066;-75
2021/11/12 08:56:38;;;;;;;244.90;163.10;;;;;;;6.51;79.46;101250.90;108082;1291;21989;-75
2021/11/12 08:59:07;;;;;;;143.90;98.40;;;;;;;6.53;79.41;101251.80;107763;1291;22007;-76
2021/11/12 09:01:36;;;;;;;197.90;126.10;;;;;;;6.54;79.55;101252.57;108087;1285;22019;-76
2021/11/12 09:04:08;;;;;;;179.10;125.80;;;;;;;6.58;79.54;101242.83;108192;1283;21989;-76
2021/11/12 09:06:37;;;;;;;136.40;102.20;;;;;;;6.59;79.34;101238.52;108453;1283;22355;-77
2021/11/12 09:09:08;;;;;;;127.60;93.00;;;;;;;6.59;79.30;101239.92;108516;1283;22153;-76
2021/11/12 09:11:39;;;;;;;117.10;86.00;;;;;;;6.63;79.42;101244.56;108459;1283;21999;-76
2021/11/12 09:14:15;;;;;;;129.70;89.90;;;;;;;6.67;79.56;101243.52;108530;1284;22340;-77
2021/11/12 09:16:48;;;;;;;122.00;80.00;;;;;;;6.71;79.35;101244.10;108498;1284;23080;-77
2021/11/12 09:19:20;;;;;;;128.60;88.40;;;;;;;6.68;79.11;101238.71;108209;1288;22017;-77
2021/11/12 09:21:49;;;;;;;122.80;86.20;;;;;;;6.69;79.21;101238.16;108210;1283;22044;-77
2021/11/12 09:24:18;;;;;;;123.70;81.70;;;;;;;6.73;79.34;101240.27;108462;1285;22352;-77
2021/11/12 09:26:48;;;;;;;123.50;86.20;;;;;;;6.78;79.33;101235.13;108381;1284;21986;-77
2021/11/12 09:29:17;;;;;;;129.00;88.60;;;;;;;6.78;78.95;101236.65;108418;1283;22752;-76
2021/11/12 09:31:48;;;;;;;117.20;81.70;;;;;;;6.76;78.76;101234.03;108497;1284;22016;-78
2021/11/12 09:34:17;;;;;;;127.10;86.10;;;;;;;6.76;78.94;101237.71;108231;1285;22949;-75
2021/11/12 09:36:53;;;;;;;141.20;104.40;;;;;;;6.77;78.75;101240.81;108369;1284;21999;-75
2021/11/12 09:39:23;;;;;;;137.50;95.10;;;;;;;6.78;78.88;101241.98;108344;1285;23041;-75
2021/11/12 09:41:56;;;;;;;128.80;93.60;;;;;;;6.80;79.04;101236.68;108396;1285;21999;-75
2021/11/12 09:44:26;;;;;;;116.10;79.50;;;;;;;6.85;79.10;101237.38;108504;1282;21989;-77
2021/11/12 09:46:58;;;;;;;95.00;70.80;;;;;;;6.86;78.90;101236.58;108382;1288;22212;-75
2021/11/12 09:49:27;;;;;;;;;;;;;;;6.87;78.79;101240.20;108413;1285;24282;-75
2021/11/12 09:51:58;;;;;;;103.40;72.70;;;;;;;6.79;78.69;101236.57;108409;1285;22089;-75
2021/11/12 09:54:28;;;;;;;95.00;64.50;;;;;;;6.80;78.89;101233.41;108305;1284;22058;-76
2021/11/12 09:56:57;;;;;;;86.90;62.00;;;;;;;6.77;78.37;101229.61;108071;1290;23623;-75
2021/11/12 09:59:32;;;;;;;92.30;65.10;;;;;;;6.71;78.30;101230.27;108231;1291;21994;-76
2021/11/12 10:02:05;;;;;;;91.30;66.60;;;;;;;6.72;78.58;101232.45;107804;1291;22003;-76
2021/11/12 10:04:35;;;;;;;89.70;68.40;;;;;;;6.76;78.89;101229.17;108235;1283;23696;-76
2021/11/12 10:07:11;;;;;;;87.60;61.90;;;;;;;6.79;78.87;101226.79;108469;1283;22517;-75
2021/11/12 10:09:48;;;;;;;100.30;65.30;;;;;;;6.86;79.04;101218.21;108090;1291;22895;-76
2021/11/12 10:12:20;;;;;;;101.40;67.00;;;;;;;6.94;79.23;101219.15;108123;1291;23893;-76
2021/11/12 10:14:55;;;;;;;76.20;57.20;;;;;;;7.00;78.97;101223.38;108058;1288;22005;-75
2021/11/12 10:17:25;;;;;;;73.00;54.20;;;;;;;6.99;78.46;101219.06;108281;1286;21995;-78
2021/11/12 10:19:55;;;;;;;101.80;75.90;;;;;;;7.00;78.56;101213.77;108129;1287;22055;-78
2021/11/12 10:22:30;;;;;;;109.10;77.20;;;;;;;7.05;78.77;101212.45;108086;1288;21971;-75
2021/11/12 10:25:05;;;;;;;98.00;71.80;;;;;;;7.12;78.71;101209.98;108235;1288;22011;-74
2021/11/12 10:27:36;;;;;;;87.90;69.00;;;;;;;7.17;78.62;101207.12;107893;1285;22060;-75
2021/11/12 10:30:16;;;;;;;91.20;74.60;;;;;;;7.22;78.65;101209.20;108358;1285;21983;-75
2021/11/12 10:32:46;;;;;;;72.70;57.00;;;;;;;7.25;78.44;101204.87;107965;1291;23803;-74
2021/11/12 10:35:30;;;;;;;84.00;61.40;;;;;;;7.26;78.22;101199.88;107798;1291;22953;-75
2021/11/12 10:38:10;;;;;;;90.90;64.10;;;;;;;7.22;77.82;101196.39;107814;1288;23116;-76
2021/11/12 10:40:41;;;;;;;85.80;63.80;;;;;;;7.21;78.00;101192.10;108186;1288;22002;-75
2021/11/12 10:43:21;;;;;;;89.90;66.20;;;;;;;7.25;78.31;101187.71;108065;1288;23610;-74
2021/11/12 10:46:04;;;;;;;83.30;61.80;;;;;;;7.28;78.02;101183.27;108181;1284;22006;-74
2021/11/12 10:48:34;;;;;;;95.00;66.30;;;;;;;7.27;77.78;101178.98;108310;1283;23156;-74
2021/11/12 10:51:22;;;;;;;96.80;68.60;;;;;;;7.26;77.91;101173.83;108513;1278;23580;-73
2021/11/12 10:53:52;;;;;;;99.10;72.00;;;;;;;7.24;77.76;101176.08;108830;1277;22690;-74
2021/11/12 10:56:22;;;;;;;101.20;71.00;;;;;;;7.24;77.92;101177.30;108541;1277;23663;-75
2021/11/12 10:59:04;;;;;;;89.70;63.70;;;;;;;7.27;77.95;101174.97;108772;1278;22004;-75
2021/11/12 11:01:37;;;;;;;95.70;64.80;;;;;;;7.20;77.35;101167.17;108735;1277;22065;-74
2021/11/12 11:04:25;;;;;;;101.30;68.30;;;;;;;7.15;77.58;101167.91;108767;1277;22007;-74
2021/11/12 11:06:54;;;;;;;142.50;89.60;;;;;;;7.10;77.60;101165.81;108635;1277;21983;-74
2021/11/12 11:09:39;;;;;;;86.60;63.10;;;;;;;7.05;77.59;101168.16;108139;1285;23656;-74
2021/11/12 11:12:33;;;;;;;82.60;60.90;;;;;;;6.94;77.33;101160.86;107888;1291;22091;-75
2021/11/12 11:15:34;;;;;;;83.90;61.50;;;;;;;6.87;77.79;101156.31;107823;1291;22008;-74
2021/11/12 11:18:07;;;;;;;103.20;70.20;;;;;;;6.89;78.26;101154.07;107497;1296;22064;-73
2021/11/12 11:20:36;;;;;;;95.70;66.70;;;;;;;6.93;78.57;101151.27;107330;1297;22013;-74
2021/11/12 11:23:05;;;;;;;101.50;70.60;;;;;;;6.97;78.64;101148.00;107503;1297;24357;-74
2021/11/12 11:25:36;;;;;;;78.80;58.70;;;;;;;7.01;78.59;101139.02;107559;1297;22771;-74
2021/11/12 11:28:06;;;;;;;77.80;57.10;;;;;;;7.02;78.48;101132.52;107773;1291;23637;-74
2021/11/12 11:30:35;;;;;;;81.60;60.20;;;;;;;7.02;78.54;101131.80;107897;1286;22128;-74
2021/11/12 11:33:04;;;;;;;87.70;63.60;;;;;;;7.02;78.47;101131.05;108220;1286;21997;-74
2021/11/12 11:35:34;;;;;;;112.70;68.00;;;;;;;7.05;78.59;101130.15;108115;1287;22751;-74
2021/11/12 11:38:06;;;;;;;113.80;73.30;;;;;;;7.02;78.45;101131.61;108079;1289;22536;-75
2021/11/12 11:40:54;;;;;;;;;;;;;;;;;;;;;
2021/11/12 11:43:53;;;;;;;117.10;75.10;;;;;;;7.10;79.10;101134.51;107542;1294;22182;-74
2021/11/12 11:46:34;;;;;;;138.30;79.50;;;;;;;7.19;79.23;101132.75;107532;1294;22061;-74
2021/11/12 11:49:11;;;;;;;111.60;70.00;;;;;;;7.22;78.81;101130.89;107539;1294;21988;-74
2021/11/12 11:51:59;;;;;;;106.40;65.70;;;;;;;7.17;78.37;101125.55;107547;1294;23192;-76
2021/11/12 11:54:42;;;;;;;115.30;73.70;;;;;;;7.09;78.19;101128.80;106829;1295;22190;-76
2021/11/12 11:57:19;;;;;;;120.20;80.70;;;;;;;7.06;78.59;101127.75;107714;1291;23979;-75
2021/11/12 12:00:09;;;;;;;138.00;83.50;;;;;;;7.11;78.81;101122.34;108332;1284;22033;-75
2021/11/12 12:02:40;;;;;;;124.40;85.20;;;;;;;7.08;78.46;101114.66;108485;1285;22008;-74
2021/11/12 12:05:09;;;;;;;119.20;81.40;;;;;;;6.99;78.37;101108.03;108351;1285;23058;-74
2021/11/12 12:07:54;;;;;;;135.40;89.30;;;;;;;6.91;78.33;101102.96;108379;1285;22001;-75
2021/11/12 12:10:27;;;;;;;145.60;89.70;;;;;;;6.86;78.67;101106.67;108419;1284;22016;-74
2021/11/12 12:13:04;;;;;;;128.00;85.40;;;;;;;6.88;79.15;101105.98;108660;1278;22011;-74
2021/11/12 12:15:37;;;;;;;132.50;85.50;;;;;;;6.89;79.17;101102.05;108770;1278;22069;-74
2021/11/12 12:18:18;;;;;;;152.50;92.80;;;;;;;6.91;79.37;101098.05;108825;1278;22130;-74
2021/11/12 12:21:43;;;;;;;201.20;112.90;;;;;;;6.98;79.60;101096.80;108617;1278;23632;-75
2021/11/12 13:25:54;;;;;;;100.20;68.00;;;;;;;7.05;80.18;101047.48;108555;1280;21983;-73
2021/11/12 13:28:38;;;;;;;98.40;71.50;;;;;;;7.06;80.33;101049.17;108704;1280;21989;-73
2021/11/12 13:31:18;;;;;;;102.50;71.80;;;;;;;7.10;80.41;101045.50;108759;1280;22001;-73
2021/11/12 13:33:53;;;;;;;110.00;74.90;;;;;;;7.10;80.08;101043.38;108635;1280;21989;-73
2021/11/12 13:36:32;;;;;;;98.00;68.80;;;;;;;7.10;80.17;101040.41;108375;1285;23013;-73
2021/11/12 13:39:02;;;;;;;89.70;66.90;;;;;;;7.09;80.05;101037.20;108410;1285;23618;-73
2021/11/12 13:41:42;;;;;;;95.00;66.30;;;;;;;7.11;80.33;101036.14;108425;1284;21986;-73
2021/11/12 13:44:19;;;;;;;91.60;68.20;;;;;;;7.15;80.26;101039.70;108032;1288;22005;-73
2021/11/12 13:46:54;;;;;;;82.40;63.40;;;;;;;7.15;80.24;101044.52;108210;1288;22031;-74
2021/11/12 13:49:24;;;;;;;73.70;55.30;;;;;;;7.13;80.08;101045.77;107875;1294;22796;-75
2021/11/12 13:52:00;;;;;;;74.80;57.50;;;;;;;7.09;79.99;101044.22;107748;1294;23008;-74
2021/11/12 13:55:03;;;;;;;79.50;60.50;;;;;;;7.04;80.04;101048.61;107763;1294;22017;-74
2021/11/12 13:57:33;;;;;;;76.30;56.20;;;;;;;7.06;80.40;101042.50;107569;1293;252628;-75
2021/11/12 14:00:10;;;;;;;78.10;58.80;;;;;;;7.03;80.27;101041.48;107681;1294;23685;-74
2021/11/12 14:02:59;;;;;;;78.70;57.10;;;;;;;7.01;80.37;101042.92;108141;1285;21996;-75
2021/11/12 14:05:30;;;;;;;78.80;57.70;;;;;;;7.00;80.32;101036.52;108464;1284;22752;-74
2021/11/12 14:08:12;;;;;;;71.30;54.60;;;;;;;6.98;80.30;101034.45;108293;1285;23697;-75
2021/11/12 14:10:45;;;;;;;;;;;;;;;6.94;80.26;101035.61;108290;1288;25061;-75
2021/11/12 14:13:19;;;;;;;71.40;57.40;;;;;;;6.83;80.34;101034.45;108109;1288;22466;-76
2021/11/12 14:16:08;;;;;;;66.90;54.00;;;;;;;6.82;80.58;101034.71;108109;1288;22980;-74
2021/11/12 14:18:55;;;;;;;80.80;60.90;;;;;;;6.85;80.66;101036.23;108088;1288;22023;-74
2021/11/12 14:21:51;;;;;;;79.10;59.40;;;;;;;6.87;80.80;101034.62;108141;1289;22067;-74
2021/11/12 14:24:56;;;;;;;73.90;60.10;;;;;;;6.90;80.79;101041.23;107647;1294;22020;-74
2021/11/12 14:27:36;;;;;;;60.10;46.30;;;;;;;6.88;80.46;101036.50;108035;1287;22115;-74
2021/11/12 14:33:13;;;;;;;56.50;43.40;;;;;;;6.82;80.36;101035.08;108390;1285;23164;-73
2021/11/12 14:49:32;;;;;;;69.40;55.50;;;;;;;6.77;80.44;101029.31;108046;1285;22453;-76
2021/11/12 14:52:18;;;;;;;72.80;54.80;;;;;;;6.76;80.53;101028.75;108366;1285;22009;-76
2021/11/12 14:55:04;;;;;;;68.40;54.40;;;;;;;6.76;80.64;101028.70;108369;1285;21982;-75
2021/11/12 14:57:39;;;;;;;89.20;65.00;;;;;;;6.73;80.41;101034.02;108309;1285;22092;-76
2021/11/12 15:00:15;;;;;;;72.60;55.40;;;;;;;6.70;80.38;101030.27;108317;1285;22051;-75
2021/11/12 15:02:45;;;;;;;72.30;54.30;;;;;;;6.67;80.47;101033.10;108286;1285;23777;-75
2021/11/12 15:05:14;;;;;;;76.20;55.30;;;;;;;6.67;80.58;101028.44;108400;1284;23577;-75
2021/11/12 15:08:05;;;;;;;83.20;62.80;;;;;;;6.64;80.58;101026.95;108749;1278;22725;-75
2021/11/12 15:10:35;;;;;;;93.00;64.20;;;;;;;6.60;80.62;101029.14;108384;1282;21984;-75
2021/11/12 15:13:05;;;;;;;155.10;97.70;;;;;;;6.63;80.86;101021.56;107998;1286;21998;-75
2021/11/12 15:15:34;;;;;;;103.30;70.20;;;;;;;6.65;80.72;101018.95;108095;1288;23716;-75
2021/11/12 15:18:06;;;;;;;165.40;100.80;;;;;;;6.62;80.53;101019.70;108192;1287;23220;-75
2021/11/12 15:20:37;;;;;;;108.70;72.70;;;;;;;6.58;80.47;101022.30;108114;1287;22039;-75
2021/11/12 15:33:56;;;;;;;98.30;66.50;;;;;;;6.48;80.61;101019.29;108522;1281;22024;-76
2021/11/12 15:36:43;;;;;;;101.80;68.30;;;;;;;6.45;80.70;101019.03;108476;1281;22336;-75
2021/11/12 15:39:27;;;;;;;104.50;68.60;;;;;;;6.40;80.75;101012.95;108180;1288;23901;-76
2021/11/12 15:45:01;;;;;;;109.20;69.00;;;;;;;6.30;81.00;101012.89;107849;1288;22076;-76
2021/11/12 15:47:37;;;;;;;111.50;72.10;;;;;;;6.27;81.09;101014.35;107768;1291;22934;-76
2021/11/12 15:50:12;;;;;;;106.60;67.70;;;;;;;6.27;81.19;101016.11;107423;1294;22520;-76
2021/11/12 16:09:27;;;;;;;109.20;67.80;;;;;;;6.14;81.59;101030.58;107640;1297;23027;-76
2021/11/12 16:25:31;;;;;;;124.60;83.30;;;;;;;6.07;81.70;101034.45;108533;1282;22158;-76
2021/11/12 16:28:06;;;;;;;118.90;71.70;;;;;;;6.05;81.74;101038.80;108421;1285;22008;-76
2021/11/12 16:30:37;;;;;;;116.10;73.90;;;;;;;6.02;81.77;101040.48;108571;1283;22070;-76
2021/11/12 16:33:07;;;;;;;94.00;64.50;;;;;;;6.02;81.95;101036.25;108656;1278;22694;-76
2021/11/12 16:35:37;;;;;;;82.80;56.00;;;;;;;6.01;81.91;101035.45;108704;1278;21989;-76
2021/11/12 16:38:15;;;;;;;93.50;63.40;;;;;;;5.97;81.85;101031.04;108670;1276;23705;-76
2021/11/12 16:40:55;;;;;;;95.70;73.50;;;;;;;5.95;82.04;101037.38;108373;1283;22046;-76
2021/11/12 16:49:08;;;;;;;73.60;50.20;;;;;;;5.95;82.14;101044.35;108458;1282;21991;-76
2021/11/12 16:57:52;;;;;;;80.00;53.00;;;;;;;5.87;82.10;101037.43;108456;1283;22993;-76
2021/11/12 17:02:59;;;;;;;76.00;53.00;;;;;;;5.86;82.23;101037.16;108802;1277;23547;-79
2021/11/12 17:16:55;;;;;;;92.10;66.30;;;;;;;5.79;82.58;101026.01;108643;1277;22063;-78
2021/11/12 17:45:04;;;;;;;139.70;96.10;;;;;;;5.89;82.70;101007.86;108073;1289;21992;-78
2021/11/12 17:47:36;;;;;;;155.50;95.80;;;;;;;5.86;82.70;101004.15;108150;1289;22293;-77
2021/11/12 17:50:28;;;;;;;97.10;64.20;;;;;;;5.82;82.75;101000.36;107930;1291;22038;-78
2021/11/12 18:06:48;;;;;;;77.80;55.70;;;;;;;5.78;82.82;100997.91;109204;1277;21985;-79
2021/11/12 21:47:02;;;;;;;85.20;64.60;;;;;;;4.60;78.49;100862.83;108595;1281;21988;-77
2021/11/12 21:49:32;;;;;;;83.10;63.80;;;;;;;4.60;78.59;100854.98;108681;1281;22021;-78